Datos actuales meteorológicos del Aeropuerto de Valencia      LEVC Valencia Airport



Temperatura
25°C Temperatura
22°C Punto de rocío
83% Humedad



Viento
3 KM/H
2 MPH
1 M/S
2 NUDO



120°
ESE
Condiciones actuales

Claro Claro
Presión 1008.92 (hPa) - 29.79 (inHg)
Visibilidad 6.2 (milla) - 10 (km)
✈️ Manises
Código de aeropuerto LEVC

localidad: Valencia Airport
Distancia de Meteo Lliria: 18 (km)

Metar:
LEVC 240000Z 12002KT CAVOK 25/22 Q1009 NOSIG

Hora: 24-07-2021 02:00 CEST

Follow @meteolliria2013